sensor_id;sensor_type;location;lat;lon;timestamp;temperature;humidity
65044;DHT22;51617;48.158;16.464;2023-07-09T00:01:57;21.90;87.20
65044;DHT22;51617;48.158;16.464;2023-07-09T00:04:23;21.90;86.70
65044;DHT22;51617;48.158;16.464;2023-07-09T00:06:48;22.00;86.70
65044;DHT22;51617;48.158;16.464;2023-07-09T00:09:19;22.10;85.90
65044;DHT22;51617;48.158;16.464;2023-07-09T00:11:45;22.10;85.80
65044;DHT22;51617;48.158;16.464;2023-07-09T00:14:13;22.20;85.70
65044;DHT22;51617;48.158;16.464;2023-07-09T00:16:40;22.20;85.70
65044;DHT22;51617;48.158;16.464;2023-07-09T00:19:18;22.30;85.40
65044;DHT22;51617;48.158;16.464;2023-07-09T00:21:45;22.40;84.90
65044;DHT22;51617;48.158;16.464;2023-07-09T00:24:12;22.40;84.60
65044;DHT22;51617;48.158;16.464;2023-07-09T00:26:38;22.40;84.60
65044;DHT22;51617;48.158;16.464;2023-07-09T00:29:11;22.30;84.50
65044;DHT22;51617;48.158;16.464;2023-07-09T00:31:38;22.40;84.40
65044;DHT22;51617;48.158;16.464;2023-07-09T00:34:10;22.40;84.10
65044;DHT22;51617;48.158;16.464;2023-07-09T00:36:39;22.40;84.00
65044;DHT22;51617;48.158;16.464;2023-07-09T00:39:15;22.40;85.00
65044;DHT22;51617;48.158;16.464;2023-07-09T00:41:42;22.40;85.00
65044;DHT22;51617;48.158;16.464;2023-07-09T00:49:15;22.10;86.60
65044;DHT22;51617;48.158;16.464;2023-07-09T00:51:45;22.10;86.70
65044;DHT22;51617;48.158;16.464;2023-07-09T00:54:25;22.00;87.40
65044;DHT22;51617;48.158;16.464;2023-07-09T00:56:59;21.90;88.40
65044;DHT22;51617;48.158;16.464;2023-07-09T00:59:27;21.70;89.30
65044;DHT22;51617;48.158;16.464;2023-07-09T01:01:55;21.60;89.30
65044;DHT22;51617;48.158;16.464;2023-07-09T01:04:22;21.60;89.30
65044;DHT22;51617;48.158;16.464;2023-07-09T01:06:52;21.60;89.70
65044;DHT22;51617;48.158;16.464;2023-07-09T01:09:21;21.50;90.10
65044;DHT22;51617;48.158;16.464;2023-07-09T01:11:47;21.40;90.30
65044;DHT22;51617;48.158;16.464;2023-07-09T01:14:15;21.10;90.90
65044;DHT22;51617;48.158;16.464;2023-07-09T01:16:46;21.00;91.40
65044;DHT22;51617;48.158;16.464;2023-07-09T01:19:13;21.00;91.70
65044;DHT22;51617;48.158;16.464;2023-07-09T01:21:42;21.00;91.80
65044;DHT22;51617;48.158;16.464;2023-07-09T01:24:45;21.10;91.90
65044;DHT22;51617;48.158;16.464;2023-07-09T01:27:01;21.20;91.90
65044;DHT22;51617;48.158;16.464;2023-07-09T01:29:31;21.10;92.10
65044;DHT22;51617;48.158;16.464;2023-07-09T01:31:58;21.10;92.70
65044;DHT22;51617;48.158;16.464;2023-07-09T01:34:24;21.00;92.60
65044;DHT22;51617;48.158;16.464;2023-07-09T01:36:50;21.00;92.40
65044;DHT22;51617;48.158;16.464;2023-07-09T01:39:17;21.00;92.50
65044;DHT22;51617;48.158;16.464;2023-07-09T01:41:44;21.00;92.60
65044;DHT22;51617;48.158;16.464;2023-07-09T01:44:11;21.00;92.80
65044;DHT22;51617;48.158;16.464;2023-07-09T01:46:37;21.10;92.90
65044;DHT22;51617;48.158;16.464;2023-07-09T01:49:02;21.00;93.10
65044;DHT22;51617;48.158;16.464;2023-07-09T01:51:29;20.90;93.20
65044;DHT22;51617;48.158;16.464;2023-07-09T01:53:54;20.90;93.30
65044;DHT22;51617;48.158;16.464;2023-07-09T01:56:20;20.80;93.50
65044;DHT22;51617;48.158;16.464;2023-07-09T01:58:46;20.90;93.50
65044;DHT22;51617;48.158;16.464;2023-07-09T02:01:13;20.90;93.40
65044;DHT22;51617;48.158;16.464;2023-07-09T02:03:40;20.90;93.20
65044;DHT22;51617;48.158;16.464;2023-07-09T02:06:06;20.90;93.40
65044;DHT22;51617;48.158;16.464;2023-07-09T02:08:35;21.00;93.50
65044;DHT22;51617;48.158;16.464;2023-07-09T02:11:01;21.00;93.70
65044;DHT22;51617;48.158;16.464;2023-07-09T02:13:27;20.80;93.70
65044;DHT22;51617;48.158;16.464;2023-07-09T02:15:52;20.50;94.00
65044;DHT22;51617;48.158;16.464;2023-07-09T02:18:18;20.30;94.70
65044;DHT22;51617;48.158;16.464;2023-07-09T02:20:46;20.20;95.10
65044;DHT22;51617;48.158;16.464;2023-07-09T02:23:12;20.20;95.20
65044;DHT22;51617;48.158;16.464;2023-07-09T02:25:38;20.20;95.10
65044;DHT22;51617;48.158;16.464;2023-07-09T02:28:03;20.20;95.40
65044;DHT22;51617;48.158;16.464;2023-07-09T02:30:29;20.10;95.40
65044;DHT22;51617;48.158;16.464;2023-07-09T02:32:55;20.00;95.80
65044;DHT22;51617;48.158;16.464;2023-07-09T02:35:22;20.00;95.80
65044;DHT22;51617;48.158;16.464;2023-07-09T02:37:48;20.10;95.80
65044;DHT22;51617;48.158;16.464;2023-07-09T02:40:16;20.20;95.70
65044;DHT22;51617;48.158;16.464;2023-07-09T02:42:42;20.30;95.70
65044;DHT22;51617;48.158;16.464;2023-07-09T02:45:09;20.40;95.40
65044;DHT22;51617;48.158;16.464;2023-07-09T02:47:35;20.30;95.70
65044;DHT22;51617;48.158;16.464;2023-07-09T02:50:00;20.10;95.50
65044;DHT22;51617;48.158;16.464;2023-07-09T02:52:26;20.00;95.90
65044;DHT22;51617;48.158;16.464;2023-07-09T02:54:52;19.90;96.00
65044;DHT22;51617;48.158;16.464;2023-07-09T02:57:18;20.00;96.10
65044;DHT22;51617;48.158;16.464;2023-07-09T02:59:43;19.90;96.70
65044;DHT22;51617;48.158;16.464;2023-07-09T03:02:09;19.80;96.50
65044;DHT22;51617;48.158;16.464;2023-07-09T03:04:35;19.80;96.70
65044;DHT22;51617;48.158;16.464;2023-07-09T03:07:00;19.80;96.70
65044;DHT22;51617;48.158;16.464;2023-07-09T03:09:26;19.90;96.70
65044;DHT22;51617;48.158;16.464;2023-07-09T03:11:53;19.90;96.40
65044;DHT22;51617;48.158;16.464;2023-07-09T03:14:18;20.00;96.30
65044;DHT22;51617;48.158;16.464;2023-07-09T03:16:44;20.20;96.50
65044;DHT22;51617;48.158;16.464;2023-07-09T03:19:10;20.30;96.00
65044;DHT22;51617;48.158;16.464;2023-07-09T03:21:36;20.30;95.90
65044;DHT22;51617;48.158;16.464;2023-07-09T03:24:01;20.30;95.70
65044;DHT22;51617;48.158;16.464;2023-07-09T03:26:27;20.30;95.70
65044;DHT22;51617;48.158;16.464;2023-07-09T03:28:53;20.20;95.70
65044;DHT22;51617;48.158;16.464;2023-07-09T03:31:19;20.20;96.30
65044;DHT22;51617;48.158;16.464;2023-07-09T03:33:47;20.10;96.50
65044;DHT22;51617;48.158;16.464;2023-07-09T03:36:13;20.10;96.50
65044;DHT22;51617;48.158;16.464;2023-07-09T03:38:39;20.10;96.50
65044;DHT22;51617;48.158;16.464;2023-07-09T03:41:05;20.20;96.30
65044;DHT22;51617;48.158;16.464;2023-07-09T03:43:31;20.20;96.30
65044;DHT22;51617;48.158;16.464;2023-07-09T03:45:57;20.30;96.40
65044;DHT22;51617;48.158;16.464;2023-07-09T03:48:22;20.40;96.30
65044;DHT22;51617;48.158;16.464;2023-07-09T03:50:48;20.50;96.30
65044;DHT22;51617;48.158;16.464;2023-07-09T03:53:15;20.50;95.90
65044;DHT22;51617;48.158;16.464;2023-07-09T03:55:41;20.50;95.80
65044;DHT22;51617;48.158;16.464;2023-07-09T03:58:07;20.70;95.70
65044;DHT22;51617;48.158;16.464;2023-07-09T04:00:33;20.80;95.80
65044;DHT22;51617;48.158;16.464;2023-07-09T04:02:59;20.80;95.90
65044;DHT22;51617;48.158;16.464;2023-07-09T04:05:26;20.70;95.80
65044;DHT22;51617;48.158;16.464;2023-07-09T04:07:52;20.70;95.80
65044;DHT22;51617;48.158;16.464;2023-07-09T04:10:19;20.70;95.70
65044;DHT22;51617;48.158;16.464;2023-07-09T04:12:45;20.80;95.60
65044;DHT22;51617;48.158;16.464;2023-07-09T04:15:11;20.80;95.70
65044;DHT22;51617;48.158;16.464;2023-07-09T04:17:40;20.80;95.70
65044;DHT22;51617;48.158;16.464;2023-07-09T04:20:07;20.90;95.60
65044;DHT22;51617;48.158;16.464;2023-07-09T04:22:34;21.00;95.60
65044;DHT22;51617;48.158;16.464;2023-07-09T04:25:01;21.00;95.50
65044;DHT22;51617;48.158;16.464;2023-07-09T04:27:28;21.00;95.40
65044;DHT22;51617;48.158;16.464;2023-07-09T04:29:54;21.10;95.60
65044;DHT22;51617;48.158;16.464;2023-07-09T04:32:20;21.10;95.40
65044;DHT22;51617;48.158;16.464;2023-07-09T04:34:46;21.10;95.30
65044;DHT22;51617;48.158;16.464;2023-07-09T04:37:13;21.30;95.10
65044;DHT22;51617;48.158;16.464;2023-07-09T04:39:39;21.40;94.80
65044;DHT22;51617;48.158;16.464;2023-07-09T04:42:06;21.60;94.40
65044;DHT22;51617;48.158;16.464;2023-07-09T04:44:34;21.70;94.30
65044;DHT22;51617;48.158;16.464;2023-07-09T04:47:00;21.80;94.10
65044;DHT22;51617;48.158;16.464;2023-07-09T04:49:25;22.00;93.90
65044;DHT22;51617;48.158;16.464;2023-07-09T04:51:51;22.10;93.50
65044;DHT22;51617;48.158;16.464;2023-07-09T04:54:17;22.20;93.20
65044;DHT22;51617;48.158;16.464;2023-07-09T04:56:42;22.30;93.10
65044;DHT22;51617;48.158;16.464;2023-07-09T04:59:12;22.30;92.70
65044;DHT22;51617;48.158;16.464;2023-07-09T05:01:38;22.50;92.30
65044;DHT22;51617;48.158;16.464;2023-07-09T05:04:04;22.50;92.10
65044;DHT22;51617;48.158;16.464;2023-07-09T05:06:29;22.50;91.80
65044;DHT22;51617;48.158;16.464;2023-07-09T05:08:55;22.50;91.70
65044;DHT22;51617;48.158;16.464;2023-07-09T05:11:20;22.70;91.50
65044;DHT22;51617;48.158;16.464;2023-07-09T05:13:46;22.70;91.40
65044;DHT22;51617;48.158;16.464;2023-07-09T05:16:12;22.90;91.30
65044;DHT22;51617;48.158;16.464;2023-07-09T05:18:37;23.00;91.20
65044;DHT22;51617;48.158;16.464;2023-07-09T05:21:03;23.10;91.10
65044;DHT22;51617;48.158;16.464;2023-07-09T05:23:29;23.20;90.90
65044;DHT22;51617;48.158;16.464;2023-07-09T05:25:59;23.30;90.70
65044;DHT22;51617;48.158;16.464;2023-07-09T05:28:24;23.40;90.60
65044;DHT22;51617;48.158;16.464;2023-07-09T05:30:50;23.50;90.70
65044;DHT22;51617;48.158;16.464;2023-07-09T05:33:17;23.50;90.80
65044;DHT22;51617;48.158;16.464;2023-07-09T05:35:44;23.60;91.00
65044;DHT22;51617;48.158;16.464;2023-07-09T05:38:10;23.60;91.00
65044;DHT22;51617;48.158;16.464;2023-07-09T05:40:36;23.70;90.80
65044;DHT22;51617;48.158;16.464;2023-07-09T05:43:02;23.70;90.60
65044;DHT22;51617;48.158;16.464;2023-07-09T05:45:28;23.80;90.90
65044;DHT22;51617;48.158;16.464;2023-07-09T05:47:54;23.80;90.50
65044;DHT22;51617;48.158;16.464;2023-07-09T05:50:19;24.00;90.30
65044;DHT22;51617;48.158;16.464;2023-07-09T05:52:45;24.00;90.40
65044;DHT22;51617;48.158;16.464;2023-07-09T05:55:11;24.10;90.20
65044;DHT22;51617;48.158;16.464;2023-07-09T05:57:38;24.10;90.20
65044;DHT22;51617;48.158;16.464;2023-07-09T06:00:04;24.20;90.00
65044;DHT22;51617;48.158;16.464;2023-07-09T06:02:30;24.20;89.30
65044;DHT22;51617;48.158;16.464;2023-07-09T06:04:56;24.30;88.90
65044;DHT22;51617;48.158;16.464;2023-07-09T06:07:23;24.40;88.80
65044;DHT22;51617;48.158;16.464;2023-07-09T06:09:49;24.50;88.40
65044;DHT22;51617;48.158;16.464;2023-07-09T06:12:15;24.50;87.90
65044;DHT22;51617;48.158;16.464;2023-07-09T06:14:40;24.60;86.90
65044;DHT22;51617;48.158;16.464;2023-07-09T06:17:06;24.50;87.30
65044;DHT22;51617;48.158;16.464;2023-07-09T06:19:32;24.50;87.40
65044;DHT22;51617;48.158;16.464;2023-07-09T06:21:58;24.50;87.10
65044;DHT22;51617;48.158;16.464;2023-07-09T06:24:24;24.60;86.30
65044;DHT22;51617;48.158;16.464;2023-07-09T06:26:50;24.70;85.50
65044;DHT22;51617;48.158;16.464;2023-07-09T06:29:15;24.70;85.70
65044;DHT22;51617;48.158;16.464;2023-07-09T06:31:41;24.80;85.60
65044;DHT22;51617;48.158;16.464;2023-07-09T06:34:09;24.90;85.40
65044;DHT22;51617;48.158;16.464;2023-07-09T06:36:35;25.00;85.30
65044;DHT22;51617;48.158;16.464;2023-07-09T06:39:02;25.00;84.70
65044;DHT22;51617;48.158;16.464;2023-07-09T06:41:28;25.10;84.70
65044;DHT22;51617;48.158;16.464;2023-07-09T06:43:53;25.10;84.40
65044;DHT22;51617;48.158;16.464;2023-07-09T06:46:19;25.10;84.60
65044;DHT22;51617;48.158;16.464;2023-07-09T06:48:45;25.20;84.20
65044;DHT22;51617;48.158;16.464;2023-07-09T06:51:11;25.20;83.60
65044;DHT22;51617;48.158;16.464;2023-07-09T06:53:37;25.20;83.40
65044;DHT22;51617;48.158;16.464;2023-07-09T06:56:05;25.20;83.10
65044;DHT22;51617;48.158;16.464;2023-07-09T06:58:31;25.30;83.20
65044;DHT22;51617;48.158;16.464;2023-07-09T07:01:00;25.40;83.30
65044;DHT22;51617;48.158;16.464;2023-07-09T07:03:29;25.40;83.30
65044;DHT22;51617;48.158;16.464;2023-07-09T07:05:55;25.40;83.60
65044;DHT22;51617;48.158;16.464;2023-07-09T07:08:22;25.50;83.80
65044;DHT22;51617;48.158;16.464;2023-07-09T07:10:50;25.60;84.10
65044;DHT22;51617;48.158;16.464;2023-07-09T07:13:16;25.80;83.90
65044;DHT22;51617;48.158;16.464;2023-07-09T07:15:44;25.80;83.50
65044;DHT22;51617;48.158;16.464;2023-07-09T07:18:10;25.90;83.60
65044;DHT22;51617;48.158;16.464;2023-07-09T07:20:35;26.00;83.70
65044;DHT22;51617;48.158;16.464;2023-07-09T07:23:01;26.10;83.20
65044;DHT22;51617;48.158;16.464;2023-07-09T07:25:27;26.10;83.20
65044;DHT22;51617;48.158;16.464;2023-07-09T07:27:52;26.10;83.00
65044;DHT22;51617;48.158;16.464;2023-07-09T07:30:18;26.20;83.00
65044;DHT22;51617;48.158;16.464;2023-07-09T07:32:46;26.20;82.70
65044;DHT22;51617;48.158;16.464;2023-07-09T07:35:13;26.30;82.70
65044;DHT22;51617;48.158;16.464;2023-07-09T07:37:40;26.40;82.40
65044;DHT22;51617;48.158;16.464;2023-07-09T07:40:06;26.30;81.50
65044;DHT22;51617;48.158;16.464;2023-07-09T07:42:32;26.40;81.60
65044;DHT22;51617;48.158;16.464;2023-07-09T07:44:58;26.50;81.90
65044;DHT22;51617;48.158;16.464;2023-07-09T07:47:24;26.60;81.90
65044;DHT22;51617;48.158;16.464;2023-07-09T07:49:51;26.70;81.80
65044;DHT22;51617;48.158;16.464;2023-07-09T07:52:16;26.80;81.20
65044;DHT22;51617;48.158;16.464;2023-07-09T07:54:42;26.60;81.20
65044;DHT22;51617;48.158;16.464;2023-07-09T07:57:07;26.70;81.20
65044;DHT22;51617;48.158;16.464;2023-07-09T07:59:35;26.80;80.40
65044;DHT22;51617;48.158;16.464;2023-07-09T08:02:02;27.00;81.20
65044;DHT22;51617;48.158;16.464;2023-07-09T08:04:28;27.10;80.10
65044;DHT22;51617;48.158;16.464;2023-07-09T08:06:53;27.20;79.80
65044;DHT22;51617;48.158;16.464;2023-07-09T08:09:19;27.30;79.00
65044;DHT22;51617;48.158;16.464;2023-07-09T08:11:45;27.20;78.70
65044;DHT22;51617;48.158;16.464;2023-07-09T08:14:11;27.30;78.20
65044;DHT22;51617;48.158;16.464;2023-07-09T08:16:37;27.40;78.10
65044;DHT22;51617;48.158;16.464;2023-07-09T08:19:03;27.40;78.60
65044;DHT22;51617;48.158;16.464;2023-07-09T08:21:29;27.50;78.30
65044;DHT22;51617;48.158;16.464;2023-07-09T08:23:55;27.60;78.60
65044;DHT22;51617;48.158;16.464;2023-07-09T08:26:20;27.70;78.30
65044;DHT22;51617;48.158;16.464;2023-07-09T08:28:46;27.90;77.70
65044;DHT22;51617;48.158;16.464;2023-07-09T08:31:12;28.00;76.50
65044;DHT22;51617;48.158;16.464;2023-07-09T08:33:37;28.00;76.60
65044;DHT22;51617;48.158;16.464;2023-07-09T08:36:03;28.10;76.80
65044;DHT22;51617;48.158;16.464;2023-07-09T08:38:29;28.10;76.40
65044;DHT22;51617;48.158;16.464;2023-07-09T08:49:21;28.50;75.00
65044;DHT22;51617;48.158;16.464;2023-07-09T08:51:48;28.40;73.70
65044;DHT22;51617;48.158;16.464;2023-07-09T08:54:30;28.30;74.70
65044;DHT22;51617;48.158;16.464;2023-07-09T08:57:00;28.40;74.70
65044;DHT22;51617;48.158;16.464;2023-07-09T08:59:30;28.60;74.30
65044;DHT22;51617;48.158;16.464;2023-07-09T09:01:58;28.70;74.00
65044;DHT22;51617;48.158;16.464;2023-07-09T09:04:28;28.80;74.30
65044;DHT22;51617;48.158;16.464;2023-07-09T09:07:16;29.00;74.10
65044;DHT22;51617;48.158;16.464;2023-07-09T09:09:57;28.90;73.00
65044;DHT22;51617;48.158;16.464;2023-07-09T09:12:28;28.90;72.20
65044;DHT22;51617;48.158;16.464;2023-07-09T09:15:00;28.90;71.90
65044;DHT22;51617;48.158;16.464;2023-07-09T09:17:27;28.90;71.90
65044;DHT22;51617;48.158;16.464;2023-07-09T09:20:05;29.10;71.90
65044;DHT22;51617;48.158;16.464;2023-07-09T09:25:28;29.30;70.50
65044;DHT22;51617;48.158;16.464;2023-07-09T09:27:55;29.40;70.10
65044;DHT22;51617;48.158;16.464;2023-07-09T09:30:23;29.40;69.50
65044;DHT22;51617;48.158;16.464;2023-07-09T09:32:56;29.50;69.00
65044;DHT22;51617;48.158;16.464;2023-07-09T09:35:32;29.60;68.60
65044;DHT22;51617;48.158;16.464;2023-07-09T09:37:59;29.70;68.30
65044;DHT22;51617;48.158;16.464;2023-07-09T09:40:27;29.80;66.00
65044;DHT22;51617;48.158;16.464;2023-07-09T09:42:55;29.80;65.60
65044;DHT22;51617;48.158;16.464;2023-07-09T09:45:26;29.90;65.00
65044;DHT22;51617;48.158;16.464;2023-07-09T09:47:57;30.00;64.10
65044;DHT22;51617;48.158;16.464;2023-07-09T09:50:23;30.00;64.10
65044;DHT22;51617;48.158;16.464;2023-07-09T09:52:51;30.10;65.10
65044;DHT22;51617;48.158;16.464;2023-07-09T09:55:20;30.10;65.70
65044;DHT22;51617;48.158;16.464;2023-07-09T09:57:50;30.30;65.20
65044;DHT22;51617;48.158;16.464;2023-07-09T10:00:17;30.30;64.10
65044;DHT22;51617;48.158;16.464;2023-07-09T10:02:44;30.40;64.20
65044;DHT22;51617;48.158;16.464;2023-07-09T10:05:20;30.40;62.80
65044;DHT22;51617;48.158;16.464;2023-07-09T10:08:08;30.40;61.90
65044;DHT22;51617;48.158;16.464;2023-07-09T10:10:35;30.50;60.70
65044;DHT22;51617;48.158;16.464;2023-07-09T10:16:13;30.70;58.90
65044;DHT22;51617;48.158;16.464;2023-07-09T10:21:41;30.90;57.50
65044;DHT22;51617;48.158;16.464;2023-07-09T10:35:09;31.20;59.00
65044;DHT22;51617;48.158;16.464;2023-07-09T10:40:21;31.30;57.20
65044;DHT22;51617;48.158;16.464;2023-07-09T10:42:54;31.40;55.70
65044;DHT22;51617;48.158;16.464;2023-07-09T10:45:28;31.30;56.20
65044;DHT22;51617;48.158;16.464;2023-07-09T10:48:17;31.40;55.50
65044;DHT22;51617;48.158;16.464;2023-07-09T10:50:50;31.50;53.80
65044;DHT22;51617;48.158;16.464;2023-07-09T10:53:40;31.60;53.10
65044;DHT22;51617;48.158;16.464;2023-07-09T10:56:17;31.80;53.40
65044;DHT22;51617;48.158;16.464;2023-07-09T10:59:11;31.70;52.60
65044;DHT22;51617;48.158;16.464;2023-07-09T11:01:42;31.80;52.50
65044;DHT22;51617;48.158;16.464;2023-07-09T11:06:52;31.90;52.00
65044;DHT22;51617;48.158;16.464;2023-07-09T11:09:29;32.10;52.00
65044;DHT22;51617;48.158;16.464;2023-07-09T11:11:58;32.20;51.00
65044;DHT22;51617;48.158;16.464;2023-07-09T11:17:04;32.50;50.30
65044;DHT22;51617;48.158;16.464;2023-07-09T11:19:31;32.50;49.20
65044;DHT22;51617;48.158;16.464;2023-07-09T11:22:17;32.50;48.00
65044;DHT22;51617;48.158;16.464;2023-07-09T11:24:50;32.60;47.40
65044;DHT22;51617;48.158;16.464;2023-07-09T11:27:26;32.70;47.30
65044;DHT22;51617;48.158;16.464;2023-07-09T11:32:23;32.80;46.70
65044;DHT22;51617;48.158;16.464;2023-07-09T11:34:49;33.00;47.10
65044;DHT22;51617;48.158;16.464;2023-07-09T11:37:15;33.20;47.90
65044;DHT22;51617;48.158;16.464;2023-07-09T11:39:46;33.30;46.80
65044;DHT22;51617;48.158;16.464;2023-07-09T11:42:32;33.40;48.80
65044;DHT22;51617;48.158;16.464;2023-07-09T11:45:07;33.50;47.30
65044;DHT22;51617;48.158;16.464;2023-07-09T11:47:39;33.60;47.30
65044;DHT22;51617;48.158;16.464;2023-07-09T11:50:29;33.60;45.90
65044;DHT22;51617;48.158;16.464;2023-07-09T11:55:40;33.70;45.70
65044;DHT22;51617;48.158;16.464;2023-07-09T11:58:10;33.70;46.10
65044;DHT22;51617;48.158;16.464;2023-07-09T12:03:34;34.00;45.30
65044;DHT22;51617;48.158;16.464;2023-07-09T12:08:49;34.20;46.10
65044;DHT22;51617;48.158;16.464;2023-07-09T12:11:35;34.20;45.50
65044;DHT22;51617;48.158;16.464;2023-07-09T12:14:08;34.20;45.70
65044;DHT22;51617;48.158;16.464;2023-07-09T12:16:38;34.10;45.70
65044;DHT22;51617;48.158;16.464;2023-07-09T12:19:04;34.10;46.20
65044;DHT22;51617;48.158;16.464;2023-07-09T12:21:31;34.10;45.60
65044;DHT22;51617;48.158;16.464;2023-07-09T12:23:57;34.00;46.60
65044;DHT22;51617;48.158;16.464;2023-07-09T12:26:23;34.00;45.70
65044;DHT22;51617;48.158;16.464;2023-07-09T12:28:53;33.90;45.00
65044;DHT22;51617;48.158;16.464;2023-07-09T12:31:25;33.70;45.80
65044;DHT22;51617;48.158;16.464;2023-07-09T12:33:56;33.70;46.20
65044;DHT22;51617;48.158;16.464;2023-07-09T12:36:24;33.70;45.80
65044;DHT22;51617;48.158;16.464;2023-07-09T12:38:53;33.60;46.10
65044;DHT22;51617;48.158;16.464;2023-07-09T12:41:30;33.70;47.00
65044;DHT22;51617;48.158;16.464;2023-07-09T12:43:58;33.70;47.50
65044;DHT22;51617;48.158;16.464;2023-07-09T12:46:24;33.90;47.00
65044;DHT22;51617;48.158;16.464;2023-07-09T12:48:50;33.90;46.40
65044;DHT22;51617;48.158;16.464;2023-07-09T12:51:24;34.10;46.40
65044;DHT22;51617;48.158;16.464;2023-07-09T12:54:18;34.10;41.70
65044;DHT22;51617;48.158;16.464;2023-07-09T12:56:45;34.20;41.00
65044;DHT22;51617;48.158;16.464;2023-07-09T12:59:28;34.10;42.30
65044;DHT22;51617;48.158;16.464;2023-07-09T13:02:14;34.10;41.50
65044;DHT22;51617;48.158;16.464;2023-07-09T13:04:40;33.90;41.30
65044;DHT22;51617;48.158;16.464;2023-07-09T13:09:52;34.00;41.70
65044;DHT22;51617;48.158;16.464;2023-07-09T13:12:19;34.00;41.10
65044;DHT22;51617;48.158;16.464;2023-07-09T13:14:55;34.00;41.20
65044;DHT22;51617;48.158;16.464;2023-07-09T13:17:21;34.20;41.40
65044;DHT22;51617;48.158;16.464;2023-07-09T13:19:46;34.40;42.50
65044;DHT22;51617;48.158;16.464;2023-07-09T13:22:17;34.20;40.50
65044;DHT22;51617;48.158;16.464;2023-07-09T13:24:46;34.10;40.10
65044;DHT22;51617;48.158;16.464;2023-07-09T13:27:13;34.20;39.70
65044;DHT22;51617;48.158;16.464;2023-07-09T13:29:39;34.20;40.10
65044;DHT22;51617;48.158;16.464;2023-07-09T13:32:10;34.30;40.10
65044;DHT22;51617;48.158;16.464;2023-07-09T13:34:36;34.40;40.20
65044;DHT22;51617;48.158;16.464;2023-07-09T13:37:01;34.50;40.40
65044;DHT22;51617;48.158;16.464;2023-07-09T13:39:27;34.60;40.20
65044;DHT22;51617;48.158;16.464;2023-07-09T13:41:53;34.70;40.40
65044;DHT22;51617;48.158;16.464;2023-07-09T13:44:29;34.80;40.80
65044;DHT22;51617;48.158;16.464;2023-07-09T13:46:56;35.10;40.90
65044;DHT22;51617;48.158;16.464;2023-07-09T13:49:24;35.10;39.80
65044;DHT22;51617;48.158;16.464;2023-07-09T13:51:54;35.10;39.90
65044;DHT22;51617;48.158;16.464;2023-07-09T13:54:29;35.20;39.70
65044;DHT22;51617;48.158;16.464;2023-07-09T13:57:02;35.20;39.00
65044;DHT22;51617;48.158;16.464;2023-07-09T13:59:28;35.30;39.50
65044;DHT22;51617;48.158;16.464;2023-07-09T14:01:56;35.40;39.40
65044;DHT22;51617;48.158;16.464;2023-07-09T14:04:24;35.50;39.50
65044;DHT22;51617;48.158;16.464;2023-07-09T14:06:50;35.60;38.70
65044;DHT22;51617;48.158;16.464;2023-07-09T14:09:16;35.60;38.60
65044;DHT22;51617;48.158;16.464;2023-07-09T14:11:45;35.60;38.90
65044;DHT22;51617;48.158;16.464;2023-07-09T14:14:22;35.80;39.20
65044;DHT22;51617;48.158;16.464;2023-07-09T14:16:50;36.00;39.00
65044;DHT22;51617;48.158;16.464;2023-07-09T14:19:22;36.00;39.30
65044;DHT22;51617;48.158;16.464;2023-07-09T14:21:48;36.00;39.20
65044;DHT22;51617;48.158;16.464;2023-07-09T14:26:49;36.00;39.60
65044;DHT22;51617;48.158;16.464;2023-07-09T14:29:15;36.20;40.50
65044;DHT22;51617;48.158;16.464;2023-07-09T14:31:42;36.20;39.80
65044;DHT22;51617;48.158;16.464;2023-07-09T14:34:22;36.20;39.80
65044;DHT22;51617;48.158;16.464;2023-07-09T14:36:52;36.30;39.10
65044;DHT22;51617;48.158;16.464;2023-07-09T14:39:18;36.60;38.70
65044;DHT22;51617;48.158;16.464;2023-07-09T14:41:44;37.10;38.80
65044;DHT22;51617;48.158;16.464;2023-07-09T14:44:31;38.20;38.50
65044;DHT22;51617;48.158;16.464;2023-07-09T14:46:59;39.40;37.80
65044;DHT22;51617;48.158;16.464;2023-07-09T14:49:26;40.40;37.20
65044;DHT22;51617;48.158;16.464;2023-07-09T14:51:53;41.20;36.50
65044;DHT22;51617;48.158;16.464;2023-07-09T14:54:29;41.40;36.00
65044;DHT22;51617;48.158;16.464;2023-07-09T14:56:57;42.00;36.00
65044;DHT22;51617;48.158;16.464;2023-07-09T14:59:24;42.40;35.50
65044;DHT22;51617;48.158;16.464;2023-07-09T15:01:50;42.80;35.40
65044;DHT22;51617;48.158;16.464;2023-07-09T15:04:28;43.00;34.90
65044;DHT22;51617;48.158;16.464;2023-07-09T15:06:55;43.10;34.50
65044;DHT22;51617;48.158;16.464;2023-07-09T15:09:23;43.20;34.60
65044;DHT22;51617;48.158;16.464;2023-07-09T15:11:53;43.20;34.30
65044;DHT22;51617;48.158;16.464;2023-07-09T15:14:19;42.90;34.20
65044;DHT22;51617;48.158;16.464;2023-07-09T15:16:49;42.90;34.10
65044;DHT22;51617;48.158;16.464;2023-07-09T15:19:17;43.10;34.70
65044;DHT22;51617;48.158;16.464;2023-07-09T15:21:45;42.90;34.20
65044;DHT22;51617;48.158;16.464;2023-07-09T15:24:22;42.50;34.30
65044;DHT22;51617;48.158;16.464;2023-07-09T15:26:52;42.80;34.30
65044;DHT22;51617;48.158;16.464;2023-07-09T15:29:18;43.10;34.50
65044;DHT22;51617;48.158;16.464;2023-07-09T15:31:45;43.40;34.10
65044;DHT22;51617;48.158;16.464;2023-07-09T15:34:10;43.50;33.90
65044;DHT22;51617;48.158;16.464;2023-07-09T15:36:37;43.50;34.00
65044;DHT22;51617;48.158;16.464;2023-07-09T15:39:03;43.50;34.10
65044;DHT22;51617;48.158;16.464;2023-07-09T15:41:28;43.50;33.90
65044;DHT22;51617;48.158;16.464;2023-07-09T15:43:54;43.30;33.80
65044;DHT22;51617;48.158;16.464;2023-07-09T15:46:21;43.00;34.60
65044;DHT22;51617;48.158;16.464;2023-07-09T15:48:50;43.40;34.50
65044;DHT22;51617;48.158;16.464;2023-07-09T15:51:16;43.50;34.10
65044;DHT22;51617;48.158;16.464;2023-07-09T15:53:41;43.80;33.90
65044;DHT22;51617;48.158;16.464;2023-07-09T15:56:28;44.30;34.10
65044;DHT22;51617;48.158;16.464;2023-07-09T15:58:56;44.30;33.40
65044;DHT22;51617;48.158;16.464;2023-07-09T16:01:23;44.00;33.50
65044;DHT22;51617;48.158;16.464;2023-07-09T16:03:50;44.30;33.40
65044;DHT22;51617;48.158;16.464;2023-07-09T16:06:17;44.60;34.20
65044;DHT22;51617;48.158;16.464;2023-07-09T16:08:43;44.60;33.60
65044;DHT22;51617;48.158;16.464;2023-07-09T16:11:18;44.90;33.20
65044;DHT22;51617;48.158;16.464;2023-07-09T16:13:44;45.00;33.40
65044;DHT22;51617;48.158;16.464;2023-07-09T16:16:18;45.00;33.10
65044;DHT22;51617;48.158;16.464;2023-07-09T16:18:44;45.00;33.10
65044;DHT22;51617;48.158;16.464;2023-07-09T16:23:47;44.80;33.30